メインページ
METAR-TAF:

METAR-TAF

空港 :

フォール=ド=フランス, マルティニーク

マルティニーク・エメ・セゼール国際空港

緯度: 14-36N, 経度: 061-00W, 海抜: 5m

現時点の気象観測

当レポートは36分前の03:00(UTC)に作成
の風 6kt
気温 26°C
湿度 79%
気圧 1016 hPa
視程10km以上
高度2800ftの雲はほとんどない

METAR: TFFF 260300Z AUTO 10006KT 9999 FEW028 26/22 Q1016 NOSIG

時間: 23:36 (03:36 UTC)

予報

当レポートは4時間36分前の23:00(UTC)に作成
予報は26日の 00時(UTC)から 26日の 24時(UTC)まで有効
東/北東の風 10kt
視程10km以上
高度2300ftの雲は散在している
確率 30% :
26日の 14時(UTC)から 26日の 18時(UTC)まで一時的に
高度1400ftの千切れ雲あり
にわか雨
26日の 20時(UTC)から 26日の 24時(UTC)まで徐々に
高度2000ftの雲はほとんどない
高度3800ftの雲は散在している
高度9000ftの千切れ雲あり

TAF: TFFF 252300Z 2600/2624 07010KT 9999 SCT023 PROB30 TEMPO 2614/2618 SHRA BKN014 BECMG 2620/2624 FEW020 SCT038 BKN090

4,000以上の空港の気象観測と天気予報(METAR報とTAF報)

利用可能な観測所は地図上に黄色い丸と赤い丸で示す。

丸の上にカーソルを重ねると観測所名を参照できる。

次にクリックすると気象観測と天気予報を参照できる。

マップの切り替え:黒色「×」印の緑ボタンをクリックして拡大、「-」印の緑ボタンをクリックして縮小、緑色の三角印をクリックして隣りの地図に切り替え


METAR-TAF: